createdAt,value
2024-02-29T00:02:20.520Z,17.85
2024-02-29T00:04:47.298Z,20.70
2024-02-29T00:07:15.512Z,17.08
2024-02-29T00:09:42.315Z,23.00
2024-02-29T00:12:09.156Z,22.92
2024-02-29T00:14:38.549Z,20.05
2024-02-29T00:17:05.318Z,27.55
2024-02-29T00:19:32.075Z,32.03
2024-02-29T00:21:58.872Z,27.45
2024-02-29T00:24:26.982Z,25.50
2024-02-29T00:26:53.754Z,29.77
2024-02-29T00:29:20.645Z,34.15
2024-02-29T00:31:47.521Z,27.92
2024-02-29T00:34:14.587Z,30.63
2024-02-29T00:36:41.517Z,29.20
2024-02-29T00:39:14.351Z,26.38
2024-02-29T00:41:43.317Z,29.33
2024-02-29T00:44:10.596Z,30.27
2024-02-29T00:46:38.321Z,25.75
2024-02-29T00:49:05.722Z,27.60
2024-02-29T00:51:32.562Z,23.45
2024-02-29T00:53:59.730Z,23.00
2024-02-29T00:56:26.540Z,29.35
2024-02-29T00:58:54.673Z,28.08
2024-02-29T01:01:21.718Z,30.00
2024-02-29T01:03:48.619Z,29.10
2024-02-29T01:06:15.502Z,28.67
2024-02-29T01:08:42.278Z,31.00
2024-02-29T01:11:09.137Z,30.05
2024-02-29T01:13:35.922Z,26.67
2024-02-29T01:16:04.567Z,22.88
2024-02-29T01:18:31.431Z,28.08
2024-02-29T01:20:58.320Z,31.52
2024-02-29T01:23:25.069Z,29.85
2024-02-29T01:25:51.821Z,38.85
2024-02-29T01:28:18.676Z,26.15
2024-02-29T01:30:45.503Z,28.40
2024-02-29T01:33:13.732Z,25.17
2024-02-29T01:35:40.495Z,27.55
2024-02-29T01:38:07.285Z,25.98
2024-02-29T01:40:34.035Z,31.67
2024-02-29T01:43:00.881Z,26.10
2024-02-29T01:45:27.645Z,23.58
2024-02-29T01:47:54.501Z,21.42
2024-02-29T01:50:25.017Z,20.73
2024-02-29T01:52:52.025Z,23.50
2024-02-29T01:55:19.046Z,23.17
2024-02-29T01:57:46.061Z,24.15
2024-02-29T02:00:13.839Z,24.40
2024-02-29T02:02:40.681Z,27.10
2024-02-29T02:05:08.502Z,20.88
2024-02-29T02:07:37.385Z,27.17
2024-02-29T02:10:04.666Z,27.27
2024-02-29T02:12:31.532Z,23.40
2024-02-29T02:14:58.389Z,23.50
2024-02-29T02:17:25.181Z,22.10
2024-02-29T02:19:52.722Z,22.23
2024-02-29T02:22:20.781Z,21.60
2024-02-29T02:24:47.577Z,23.77
2024-02-29T02:27:14.320Z,24.30
2024-02-29T02:29:41.106Z,24.60
2024-02-29T02:32:07.923Z,23.35
2024-02-29T02:34:34.693Z,22.85
2024-02-29T02:37:01.520Z,27.73
2024-02-29T02:39:29.688Z,23.35
2024-02-29T02:41:56.492Z,23.67
2024-02-29T02:44:23.246Z,19.75
2024-02-29T02:46:50.003Z,20.73
2024-02-29T02:49:16.797Z,23.15
2024-02-29T02:51:43.612Z,17.25
2024-02-29T02:54:10.394Z,18.52
2024-02-29T02:56:38.508Z,21.98
2024-02-29T02:59:05.275Z,26.25
2024-02-29T03:01:32.056Z,22.00
2024-02-29T03:03:58.870Z,22.48
2024-02-29T03:06:25.647Z,23.13
2024-02-29T03:08:52.410Z,20.20
2024-02-29T03:11:19.204Z,23.58
2024-02-29T03:13:47.346Z,19.92
2024-02-29T03:16:21.664Z,18.30
2024-02-29T03:18:48.461Z,27.00
2024-02-29T03:21:15.498Z,18.95
2024-02-29T03:23:42.316Z,26.23
2024-02-29T03:26:09.177Z,23.08
2024-02-29T03:28:36.044Z,21.25
2024-02-29T03:31:04.572Z,21.70
2024-02-29T03:33:31.431Z,22.60
2024-02-29T03:35:58.324Z,20.05
2024-02-29T03:38:25.127Z,17.75
2024-02-29T03:40:51.929Z,24.73
2024-02-29T03:43:18.726Z,28.15
2024-02-29T03:45:45.558Z,21.38
2024-02-29T03:48:13.734Z,18.60
2024-02-29T03:50:40.645Z,23.10
2024-02-29T03:53:07.412Z,19.65
2024-02-29T03:55:34.174Z,20.02
2024-02-29T03:58:00.942Z,19.90
2024-02-29T04:00:27.736Z,24.95
2024-02-29T04:02:54.519Z,22.50
2024-02-29T04:05:22.698Z,25.60
2024-02-29T04:07:49.481Z,20.50
2024-02-29T04:10:16.498Z,14.55
2024-02-29T04:12:43.440Z,20.25
2024-02-29T04:15:10.556Z,18.27
2024-02-29T04:17:37.373Z,19.17
2024-02-29T04:20:04.909Z,21.67
2024-02-29T04:22:33.042Z,25.52
2024-02-29T04:24:59.897Z,19.02
2024-02-29T04:27:26.783Z,25.85
2024-02-29T04:29:53.604Z,26.50
2024-02-29T04:32:20.356Z,23.00
2024-02-29T04:34:48.080Z,23.35
2024-02-29T04:37:14.873Z,19.52
2024-02-29T04:39:43.089Z,19.88
2024-02-29T04:42:09.890Z,20.80
2024-02-29T04:44:36.697Z,25.13
2024-02-29T04:47:03.685Z,27.85
2024-02-29T04:49:30.477Z,17.38
2024-02-29T04:51:57.284Z,30.83
2024-02-29T04:54:24.094Z,14.40
2024-02-29T04:56:52.209Z,19.40
2024-02-29T04:59:18.976Z,20.63
2024-02-29T05:01:45.852Z,20.73
2024-02-29T05:04:12.749Z,27.70
2024-02-29T05:06:39.659Z,24.98
2024-02-29T05:09:06.664Z,20.35
2024-02-29T05:11:35.056Z,17.83
2024-02-29T05:14:04.664Z,21.60
2024-02-29T05:16:31.709Z,22.20
2024-02-29T05:18:58.566Z,26.30
2024-02-29T05:21:25.501Z,20.35
2024-02-29T05:23:52.525Z,24.90
2024-02-29T05:26:19.884Z,25.65
2024-02-29T05:28:46.772Z,27.35
2024-02-29T05:31:15.197Z,28.50
2024-02-29T05:33:42.402Z,23.33
2024-02-29T05:36:09.425Z,22.85
2024-02-29T05:38:36.494Z,30.88
2024-02-29T05:41:04.657Z,27.85
2024-02-29T05:43:34.699Z,17.67
2024-02-29T05:46:02.588Z,19.63
2024-02-29T05:48:30.684Z,23.33
2024-02-29T05:50:57.417Z,21.40
2024-02-29T05:53:24.317Z,24.10
2024-02-29T05:55:51.103Z,25.70
2024-02-29T05:58:17.857Z,24.02
2024-02-29T06:00:44.819Z,21.88
2024-02-29T06:03:11.613Z,23.95
2024-02-29T06:05:39.725Z,28.83
2024-02-29T06:08:06.535Z,28.42
2024-02-29T06:10:33.316Z,21.98
2024-02-29T06:13:00.098Z,25.88
2024-02-29T06:15:26.899Z,29.77
2024-02-29T06:17:53.826Z,23.17
2024-02-29T06:20:20.601Z,21.58
2024-02-29T06:22:48.937Z,26.13
2024-02-29T06:25:15.958Z,24.17
2024-02-29T06:27:42.796Z,22.40
2024-02-29T06:30:10.632Z,26.90
2024-02-29T06:32:37.537Z,29.83
2024-02-29T06:35:04.936Z,25.17
2024-02-29T06:37:31.706Z,26.95
2024-02-29T06:40:00.024Z,25.45
2024-02-29T06:42:26.960Z,26.60
2024-02-29T06:44:53.953Z,30.58
2024-02-29T06:47:20.750Z,22.55
2024-02-29T06:49:47.491Z,29.08
2024-02-29T06:52:14.339Z,26.65
2024-02-29T06:54:41.195Z,31.83
2024-02-29T06:57:09.291Z,30.27
2024-02-29T06:59:36.012Z,29.15
2024-02-29T07:02:02.874Z,29.27
2024-02-29T07:04:29.649Z,30.08
2024-02-29T07:06:56.562Z,31.45
2024-02-29T07:09:23.412Z,30.83
2024-02-29T07:11:50.205Z,29.77
2024-02-29T07:14:18.413Z,38.88
2024-02-29T07:16:45.187Z,26.27
2024-02-29T07:19:11.988Z,28.70
2024-02-29T07:21:38.895Z,36.08
2024-02-29T07:24:05.979Z,29.50
2024-02-29T07:26:32.743Z,35.85
2024-02-29T07:28:59.489Z,30.75
2024-02-29T07:31:27.608Z,37.65
2024-02-29T07:33:54.441Z,26.77
2024-02-29T07:36:21.239Z,41.05
2024-02-29T07:38:47.984Z,34.08
2024-02-29T07:41:14.843Z,27.95
2024-02-29T07:43:41.615Z,34.13
2024-02-29T07:46:08.453Z,29.17
2024-02-29T07:48:36.692Z,33.70
2024-02-29T07:51:03.619Z,36.53
2024-02-29T07:53:30.431Z,31.50
2024-02-29T07:55:57.284Z,33.83
2024-02-29T07:58:24.195Z,37.50
2024-02-29T08:00:51.040Z,41.17
2024-02-29T08:03:17.885Z,35.63
2024-02-29T08:05:46.078Z,40.33
2024-02-29T08:08:12.862Z,34.95
2024-02-29T08:10:39.649Z,36.85
2024-02-29T08:13:06.472Z,39.67
2024-02-29T08:15:33.305Z,32.63
2024-02-29T08:18:00.110Z,25.35
2024-02-29T08:20:27.112Z,32.00
2024-02-29T08:22:55.664Z,36.35
2024-02-29T08:25:22.644Z,39.90
2024-02-29T08:27:49.475Z,32.85
2024-02-29T08:30:16.598Z,37.53
2024-02-29T08:32:43.413Z,35.70
2024-02-29T08:35:11.114Z,38.58
2024-02-29T08:37:37.900Z,34.20
2024-02-29T08:40:07.769Z,37.70
2024-02-29T08:42:35.011Z,41.78
2024-02-29T08:45:01.918Z,34.17
2024-02-29T08:47:28.725Z,45.40
2024-02-29T08:49:55.521Z,43.83
2024-02-29T08:52:22.400Z,37.08
2024-02-29T08:54:49.221Z,32.83
2024-02-29T08:57:17.382Z,40.15
2024-02-29T08:59:44.142Z,36.53
2024-02-29T09:02:10.970Z,33.30
2024-02-29T09:04:37.834Z,31.25
2024-02-29T09:07:04.939Z,44.80
2024-02-29T09:09:31.769Z,28.50
2024-02-29T09:11:58.581Z,31.17
2024-02-29T09:14:26.653Z,31.73
2024-02-29T09:16:53.437Z,38.35
2024-02-29T09:19:20.253Z,37.85
2024-02-29T09:21:47.104Z,29.50
2024-02-29T09:24:16.066Z,43.80
2024-02-29T09:26:43.186Z,37.25
2024-02-29T09:29:10.024Z,36.33
2024-02-29T09:31:38.485Z,46.42
2024-02-29T09:34:05.338Z,29.42
2024-02-29T09:36:32.194Z,36.78
2024-02-29T09:38:58.972Z,32.45
2024-02-29T09:43:59.350Z,46.28
2024-02-29T09:46:26.176Z,32.78
2024-02-29T09:48:54.400Z,30.45
2024-02-29T09:51:21.995Z,34.38
2024-02-29T09:53:50.449Z,32.25
2024-02-29T09:56:20.282Z,43.60
2024-02-29T09:58:47.359Z,30.88
2024-02-29T10:01:14.466Z,27.15
2024-02-29T10:03:43.135Z,36.53
2024-02-29T10:06:12.273Z,34.05
2024-02-29T10:08:39.113Z,34.17
2024-02-29T10:11:06.782Z,34.83
2024-02-29T10:13:37.431Z,33.55
2024-02-29T10:16:04.863Z,35.35
2024-02-29T10:18:33.086Z,37.20
2024-02-29T10:20:59.883Z,33.05
2024-02-29T10:23:30.083Z,38.40
2024-02-29T10:25:56.973Z,42.17
2024-02-29T10:28:23.787Z,28.25
2024-02-29T10:30:51.100Z,36.50
2024-02-29T10:33:17.892Z,36.17
2024-02-29T10:35:44.782Z,33.90
2024-02-29T10:38:11.533Z,36.63
2024-02-29T10:40:39.706Z,37.80
2024-02-29T10:43:10.092Z,32.53
2024-02-29T10:45:42.503Z,29.13
2024-02-29T10:48:16.647Z,27.63
2024-02-29T10:50:53.117Z,27.02
2024-02-29T10:53:37.317Z,29.55
2024-02-29T10:56:11.921Z,26.58
2024-02-29T10:58:41.716Z,24.02
2024-02-29T11:01:08.761Z,24.52
2024-02-29T11:03:35.742Z,29.27
2024-02-29T11:06:03.288Z,26.10
2024-02-29T11:08:31.469Z,26.20
2024-02-29T11:10:58.301Z,22.85
2024-02-29T11:13:27.798Z,29.15
2024-02-29T11:15:56.629Z,27.35
2024-02-29T11:18:24.240Z,30.00
2024-02-29T11:21:02.021Z,36.53
2024-02-29T11:23:30.450Z,32.60
2024-02-29T11:25:57.239Z,33.65
2024-02-29T11:28:33.431Z,32.45
2024-02-29T11:31:12.408Z,29.30
2024-02-29T11:33:39.310Z,34.65
2024-02-29T11:36:06.396Z,26.63
2024-02-29T11:38:39.945Z,32.63
2024-02-29T11:41:20.961Z,26.80
2024-02-29T11:43:49.068Z,29.17
2024-02-29T11:46:15.855Z,22.42
2024-02-29T11:48:42.810Z,40.22
2024-02-29T11:51:09.739Z,32.60
2024-02-29T11:53:38.034Z,28.25
2024-02-29T11:56:14.031Z,29.67
2024-02-29T11:58:42.646Z,26.65
2024-02-29T12:01:10.885Z,30.00
2024-02-29T12:03:37.738Z,37.05
2024-02-29T12:06:05.657Z,36.22
2024-02-29T12:08:33.045Z,27.83
2024-02-29T12:11:00.898Z,27.23
2024-02-29T12:13:29.178Z,32.50
2024-02-29T12:15:56.851Z,31.23
2024-02-29T12:18:25.195Z,30.05
2024-02-29T12:20:52.137Z,38.13
2024-02-29T12:23:20.347Z,36.70
2024-02-29T12:25:47.477Z,33.72
2024-02-29T12:28:14.948Z,32.78
2024-02-29T12:30:42.530Z,34.80
2024-02-29T12:33:09.730Z,40.78
2024-02-29T12:35:37.945Z,41.85
2024-02-29T12:38:04.759Z,40.88
2024-02-29T12:40:33.934Z,32.60
2024-02-29T12:43:00.782Z,34.55
2024-02-29T12:45:28.436Z,40.65
2024-02-29T12:47:55.257Z,46.42
2024-02-29T12:50:22.158Z,31.35
2024-02-29T12:52:50.421Z,32.42
2024-02-29T12:55:17.249Z,35.65
2024-02-29T12:57:44.218Z,30.70
2024-02-29T13:00:19.179Z,36.40
2024-02-29T13:02:45.946Z,40.35
2024-02-29T13:05:12.733Z,29.95
2024-02-29T13:07:39.879Z,37.95
2024-02-29T13:10:08.610Z,35.08
2024-02-29T13:12:36.354Z,28.20
2024-02-29T13:15:03.598Z,25.33
2024-02-29T13:17:30.606Z,33.47
2024-02-29T13:19:57.397Z,32.83
2024-02-29T13:22:24.162Z,34.70
2024-02-29T13:24:50.949Z,31.60
2024-02-29T13:27:19.338Z,31.38
2024-02-29T13:29:46.094Z,27.23
2024-02-29T13:32:12.843Z,23.20
2024-02-29T13:34:39.634Z,24.70
2024-02-29T13:37:06.422Z,23.63
2024-02-29T13:39:33.231Z,32.85
2024-02-29T13:42:00.002Z,24.20
2024-02-29T13:44:28.114Z,29.65
2024-02-29T13:46:54.909Z,33.15
2024-02-29T13:49:22.995Z,27.60
2024-02-29T13:51:50.163Z,28.05
2024-02-29T13:54:16.964Z,24.83
2024-02-29T13:56:44.056Z,30.80
2024-02-29T13:59:10.953Z,32.20
2024-02-29T14:01:39.129Z,26.08
2024-02-29T14:04:05.940Z,32.90
2024-02-29T14:06:32.776Z,29.00
2024-02-29T14:08:59.699Z,31.85
2024-02-29T14:11:26.503Z,29.65
2024-02-29T14:13:53.274Z,31.45
2024-02-29T14:16:20.213Z,24.98
2024-02-29T14:18:49.458Z,33.72
2024-02-29T14:21:16.391Z,31.30
2024-02-29T14:23:43.256Z,24.80
2024-02-29T14:26:10.027Z,36.00
2024-02-29T14:28:36.821Z,27.67
2024-02-29T14:31:03.762Z,28.00
2024-02-29T14:33:30.618Z,26.40
2024-02-29T14:35:58.696Z,35.65
2024-02-29T14:38:25.675Z,36.00
2024-02-29T14:40:52.440Z,29.15
2024-02-29T14:43:19.190Z,28.95
2024-02-29T14:45:46.069Z,24.35
2024-02-29T14:48:13.011Z,27.45
2024-02-29T14:50:39.812Z,32.28
2024-02-29T14:53:07.937Z,30.15
2024-02-29T14:55:34.879Z,31.17
2024-02-29T14:58:01.880Z,31.95
2024-02-29T15:00:28.727Z,24.90
2024-02-29T15:02:55.535Z,26.88
2024-02-29T15:05:22.334Z,27.00
2024-02-29T15:07:49.382Z,31.88
2024-02-29T15:10:17.621Z,24.23
2024-02-29T15:12:44.451Z,38.38
2024-02-29T15:15:11.578Z,32.88
2024-02-29T15:17:38.650Z,29.63
2024-02-29T15:20:06.502Z,29.63
2024-02-29T15:22:33.316Z,29.30
2024-02-29T15:25:00.117Z,30.15
2024-02-29T15:27:28.272Z,32.58
2024-02-29T15:29:55.104Z,32.38
2024-02-29T15:32:21.877Z,27.50
2024-02-29T15:34:48.650Z,26.67
2024-02-29T15:37:15.515Z,33.17
2024-02-29T15:39:42.370Z,29.75
2024-02-29T15:42:09.177Z,29.27
2024-02-29T15:44:37.256Z,26.65
2024-02-29T15:47:04.361Z,29.00
2024-02-29T15:49:31.228Z,27.90
2024-02-29T15:51:58.063Z,34.78
2024-02-29T15:54:24.886Z,26.98
2024-02-29T15:56:51.712Z,26.70
2024-02-29T15:59:18.566Z,27.55
2024-02-29T16:01:46.892Z,23.35
2024-02-29T16:04:13.744Z,24.45
2024-02-29T16:06:40.621Z,29.92
2024-02-29T16:09:07.395Z,28.60
2024-02-29T16:11:34.200Z,27.35
2024-02-29T16:14:01.012Z,23.17
2024-02-29T16:16:27.809Z,25.95
2024-02-29T16:18:56.025Z,26.98
2024-02-29T16:21:22.794Z,26.38
2024-02-29T16:23:49.563Z,26.42
2024-02-29T16:26:16.363Z,35.85
2024-02-29T16:28:43.278Z,49.97
2024-02-29T16:31:10.455Z,59.28
2024-02-29T16:33:37.291Z,34.95
2024-02-29T16:36:06.915Z,37.00
2024-02-29T16:38:33.737Z,28.85
2024-02-29T16:41:00.500Z,31.70
2024-02-29T16:43:27.361Z,27.77
2024-02-29T16:45:54.346Z,30.02
2024-02-29T16:48:21.207Z,33.53
2024-02-29T16:50:47.978Z,34.78
2024-02-29T16:53:16.125Z,23.50
2024-02-29T16:55:42.942Z,32.92
2024-02-29T16:58:09.889Z,31.95
2024-02-29T17:00:36.681Z,29.23
2024-02-29T17:03:04.179Z,30.80
2024-02-29T17:05:31.733Z,27.02
2024-02-29T17:07:58.507Z,34.00
2024-02-29T17:10:27.754Z,21.88
2024-02-29T17:12:54.601Z,27.17
2024-02-29T17:15:21.396Z,28.58
2024-02-29T17:17:48.193Z,30.45
2024-02-29T17:20:15.147Z,36.13
2024-02-29T17:22:42.172Z,31.80
2024-02-29T17:25:09.989Z,31.25
2024-02-29T17:27:38.390Z,27.40
2024-02-29T17:30:06.294Z,33.90
2024-02-29T17:32:33.170Z,28.35
2024-02-29T17:34:59.968Z,35.83
2024-02-29T17:37:29.303Z,30.30
2024-02-29T17:39:57.451Z,43.25
2024-02-29T17:42:24.299Z,47.50
2024-02-29T17:44:52.415Z,59.35
2024-02-29T17:47:19.264Z,33.92
2024-02-29T17:49:46.049Z,32.20
2024-02-29T17:52:12.899Z,36.03
2024-02-29T17:54:39.774Z,29.90
2024-02-29T17:57:07.054Z,34.33
2024-02-29T17:59:33.878Z,32.35
2024-02-29T18:02:02.395Z,38.67
2024-02-29T18:04:29.430Z,40.35
2024-02-29T18:06:56.298Z,34.83
2024-02-29T18:09:23.090Z,39.67
2024-02-29T18:11:49.884Z,33.28
2024-02-29T18:14:16.678Z,30.75
2024-02-29T18:16:43.645Z,41.85
2024-02-29T18:19:11.903Z,39.17
2024-02-29T18:21:42.078Z,37.20
2024-02-29T18:24:08.902Z,33.83
2024-02-29T18:26:35.654Z,34.15
2024-02-29T18:29:02.524Z,47.15
2024-02-29T18:31:29.339Z,31.02
2024-02-29T18:33:56.179Z,37.63
2024-02-29T18:36:24.421Z,35.45
2024-02-29T18:38:51.232Z,36.63
2024-02-29T18:41:18.039Z,64.70
2024-02-29T18:43:44.871Z,46.20
2024-02-29T18:46:11.806Z,36.40
2024-02-29T18:48:38.619Z,36.20
2024-02-29T18:51:05.867Z,35.60
2024-02-29T18:53:33.937Z,33.40
2024-02-29T18:56:00.742Z,41.45
2024-02-29T18:58:27.554Z,42.30
2024-02-29T19:00:54.398Z,30.90
2024-02-29T19:03:21.212Z,33.20
2024-02-29T19:05:47.946Z,43.00
2024-02-29T19:08:14.670Z,42.05
2024-02-29T19:10:42.944Z,31.83
2024-02-29T19:13:09.748Z,32.67
2024-02-29T19:15:36.496Z,44.00
2024-02-29T19:18:03.707Z,42.17
2024-02-29T19:20:30.530Z,42.00
2024-02-29T19:22:57.311Z,40.70
2024-02-29T19:25:24.252Z,43.95
2024-02-29T19:27:52.438Z,40.25
2024-02-29T19:30:21.634Z,45.20
2024-02-29T19:32:49.840Z,38.75
2024-02-29T19:35:19.185Z,35.88
2024-02-29T19:37:45.960Z,41.78
2024-02-29T19:40:13.220Z,44.58
2024-02-29T19:42:40.028Z,46.50
2024-02-29T19:45:09.516Z,40.78
2024-02-29T19:47:37.594Z,53.00
2024-02-29T19:50:05.411Z,51.97
2024-02-29T19:52:35.588Z,40.95
2024-02-29T19:55:03.172Z,43.17
2024-02-29T19:57:29.949Z,46.08
2024-02-29T19:59:56.709Z,46.38
2024-02-29T20:02:24.794Z,47.97
2024-02-29T20:04:51.533Z,41.00
2024-02-29T20:07:18.343Z,38.60
2024-02-29T20:09:48.022Z,41.40
2024-02-29T20:12:14.776Z,37.95
2024-02-29T20:14:41.544Z,36.47
2024-02-29T20:17:08.391Z,32.80
2024-02-29T20:19:38.647Z,43.80
2024-02-29T20:22:05.708Z,31.25
2024-02-29T20:24:32.752Z,38.15
2024-02-29T20:26:59.510Z,36.30
2024-02-29T20:29:26.241Z,45.50
2024-02-29T20:31:52.982Z,43.42
2024-02-29T20:34:19.798Z,56.13
2024-02-29T20:36:47.991Z,62.50
2024-02-29T20:39:14.822Z,71.45
2024-02-29T20:41:41.613Z,91.60
2024-02-29T20:44:08.869Z,39.42
2024-02-29T20:46:35.747Z,45.78
2024-02-29T20:49:02.605Z,35.00
2024-02-29T20:51:29.477Z,28.23
2024-02-29T20:53:57.675Z,37.70
2024-02-29T20:56:24.438Z,36.08
2024-02-29T20:58:51.219Z,39.30
2024-02-29T21:01:18.167Z,32.35
2024-02-29T21:03:45.038Z,32.78
2024-02-29T21:06:11.908Z,32.72
2024-02-29T21:08:38.790Z,32.28
2024-02-29T21:11:07.024Z,37.38
2024-02-29T21:13:33.853Z,37.13
2024-02-29T21:16:00.916Z,34.72
2024-02-29T21:18:27.783Z,27.33
2024-02-29T21:20:54.588Z,32.65
2024-02-29T21:23:21.558Z,42.13
2024-02-29T21:25:48.341Z,40.78
2024-02-29T21:28:16.684Z,46.28
2024-02-29T21:30:43.465Z,30.55
2024-02-29T21:33:10.327Z,22.85
2024-02-29T21:35:37.201Z,38.72
2024-02-29T21:38:04.279Z,32.75
2024-02-29T21:40:31.226Z,36.95
2024-02-29T21:42:58.222Z,32.58
2024-02-29T21:45:26.361Z,30.80
2024-02-29T21:47:53.235Z,33.80
2024-02-29T21:50:20.174Z,30.67
2024-02-29T21:52:46.948Z,32.92
2024-02-29T21:55:15.739Z,30.88
2024-02-29T21:57:42.565Z,30.15
2024-02-29T22:00:10.758Z,31.98
2024-02-29T22:02:39.026Z,25.73
2024-02-29T22:05:06.627Z,24.98
2024-02-29T22:07:33.427Z,21.70
2024-02-29T22:10:00.298Z,33.17
2024-02-29T22:12:27.091Z,25.33
2024-02-29T22:14:53.932Z,33.75
2024-02-29T22:17:20.694Z,28.70
2024-02-29T22:19:48.933Z,29.42
2024-02-29T22:22:15.768Z,29.02
2024-02-29T22:24:42.553Z,27.48
2024-02-29T22:27:09.302Z,26.20
2024-02-29T22:29:36.087Z,27.77
2024-02-29T22:32:02.876Z,30.77
2024-02-29T22:34:29.739Z,29.13
2024-02-29T22:36:57.964Z,30.65
2024-02-29T22:39:24.814Z,25.63
2024-02-29T22:41:56.921Z,30.95
2024-02-29T22:44:28.157Z,29.55
2024-02-29T22:46:54.902Z,30.27
2024-02-29T22:49:21.767Z,27.58
2024-02-29T22:51:48.631Z,29.65
2024-02-29T22:54:16.764Z,21.98
2024-02-29T22:56:43.493Z,25.90
2024-02-29T22:59:10.244Z,34.45
2024-02-29T23:01:37.082Z,25.80
2024-02-29T23:04:04.090Z,23.98
2024-02-29T23:06:30.830Z,29.00
2024-02-29T23:08:57.559Z,25.98
2024-02-29T23:11:25.692Z,19.35
2024-02-29T23:13:52.574Z,30.50
2024-02-29T23:16:19.372Z,32.45
2024-02-29T23:18:46.198Z,44.55
2024-02-29T23:21:13.737Z,36.15
2024-02-29T23:23:40.495Z,37.05
2024-02-29T23:26:07.254Z,20.17
2024-02-29T23:28:35.397Z,24.45
2024-02-29T23:31:02.276Z,24.70
2024-02-29T23:33:29.062Z,29.55
2024-02-29T23:35:55.800Z,34.03
2024-02-29T23:38:22.568Z,34.00
2024-02-29T23:40:49.301Z,34.58
2024-02-29T23:43:16.092Z,45.75
2024-02-29T23:45:44.288Z,46.78
2024-02-29T23:48:11.545Z,38.15
2024-02-29T23:50:38.277Z,27.55
2024-02-29T23:53:05.007Z,30.67
2024-02-29T23:55:32.159Z,36.60
2024-02-29T23:57:59.041Z,34.28
